Time;durP1;ratioP1;P1;durP2;ratioP2;P2;SDS_P1;SDS_P2;PMS_P1;PMS_P2;Temp;Humidity;BMP_temperature;BMP_pressure;BME280_temperature;BME280_humidity;BME280_pressure;Samples;Min_cycle;Max_cycle;Signal;HPM_P1;HPM_P2
2023/08/10 00:02:58;;;;;;;10.70;3.30;;;;;;;10.78;91.18;99131.72;221366;1304;24251;-79
2023/08/10 00:08:00;;;;;;;16.70;3.30;;;;;;;10.69;91.06;99130.27;221310;1304;22497;-79
2023/08/10 00:13:03;;;;;;;14.60;3.60;;;;;;;10.61;91.26;99130.83;221441;1304;24870;-79
2023/08/10 00:18:05;;;;;;;12.20;3.90;;;;;;;10.55;91.25;99128.50;221295;1305;22560;-79
2023/08/10 00:23:07;;;;;;;11.30;4.00;;;;;;;10.49;91.13;99127.84;221428;1304;24250;-77
2023/08/10 00:28:09;;;;;;;15.30;4.70;;;;;;;10.48;91.72;99126.69;221129;1307;22611;-78
2023/08/10 00:33:11;;;;;;;18.90;4.60;;;;;;;10.50;91.88;99135.06;221350;1298;22568;-78
2023/08/10 00:38:29;;;;;;;22.50;4.30;;;;;;;10.47;91.60;99132.73;221417;1307;22558;-78
2023/08/10 00:43:31;;;;;;;6.50;3.90;;;;;;;10.42;91.55;99131.81;221381;1304;22568;-78
2023/08/10 00:48:35;;;;;;;4.70;4.20;;;;;;;10.36;91.53;99133.00;221259;1304;22585;-78
2023/08/10 00:53:37;;;;;;;5.40;3.70;;;;;;;10.33;91.50;99141.18;221372;1298;22556;-78
2023/08/10 00:58:40;;;;;;;4.40;4.00;;;;;;;10.29;91.63;99141.51;221380;1298;22568;-77
2023/08/10 01:03:42;;;;;;;5.00;3.90;;;;;;;10.25;91.81;99144.00;221251;1304;25278;-78
2023/08/10 01:08:53;;;;;;;4.50;4.10;;;;;;;10.22;91.90;99148.58;221378;1304;22580;-77
2023/08/10 01:13:58;;;;;;;6.50;5.00;;;;;;;10.21;91.72;99152.92;221144;1307;22573;-78
2023/08/10 01:19:01;;;;;;;8.90;6.00;;;;;;;10.21;92.26;99159.20;221425;1304;22555;-77
2023/08/10 01:24:15;;;;;;;6.40;5.80;;;;;;;10.23;92.30;99163.41;221386;1303;22604;-77
2023/08/10 01:29:19;;;;;;;5.30;4.80;;;;;;;10.24;92.32;99165.01;221452;1304;22584;-76
2023/08/10 01:34:21;;;;;;;4.50;4.10;;;;;;;10.22;91.72;99163.92;221424;1304;25529;-78
2023/08/10 01:39:23;;;;;;;9.10;4.50;;;;;;;10.16;91.33;99172.35;221182;1305;22606;-77
2023/08/10 01:44:26;;;;;;;5.00;3.60;;;;;;;10.08;91.26;99173.91;221239;1307;22601;-77
2023/08/10 01:49:30;;;;;;;5.10;4.60;;;;;;;10.03;91.45;99179.91;221409;1304;25304;-77
2023/08/10 01:54:36;;;;;;;9.00;5.50;;;;;;;10.05;91.78;99179.58;221438;1298;22569;-77
2023/08/10 01:59:39;;;;;;;15.20;6.60;;;;;;;10.09;91.68;99181.71;221319;1304;25262;-77
2023/08/10 02:04:40;;;;;;;16.60;6.40;;;;;;;10.14;91.82;99183.36;221164;1307;22565;-78
2023/08/10 02:09:43;;;;;;;13.60;6.30;;;;;;;10.20;92.05;99182.45;221443;1295;22598;-78
2023/08/10 02:14:45;;;;;;;22.80;6.20;;;;;;;10.23;91.98;99178.65;221294;1305;22602;-78
2023/08/10 02:19:47;;;;;;;17.20;5.90;;;;;;;10.27;92.07;99178.48;221284;1300;22605;-78
2023/08/10 02:24:51;;;;;;;21.70;5.80;;;;;;;10.28;92.05;99181.98;221267;1304;22578;-78
2023/08/10 02:29:52;;;;;;;14.30;6.20;;;;;;;10.28;91.95;99181.52;221434;1299;24230;-77
2023/08/10 02:34:56;;;;;;;16.70;6.10;;;;;;;10.28;91.98;99187.20;221262;1304;22579;-77
2023/08/10 02:39:58;;;;;;;9.20;6.00;;;;;;;10.28;92.10;99190.83;221476;1286;24270;-79
2023/08/10 02:45:00;;;;;;;8.70;5.60;;;;;;;10.26;91.89;99191.07;221338;1303;26079;-77
2023/08/10 02:50:05;;;;;;;10.50;6.40;;;;;;;10.22;91.99;99192.01;221307;1301;22572;-77
2023/08/10 02:55:10;;;;;;;8.60;6.90;;;;;;;10.18;91.88;99185.93;221237;1288;22569;-80
2023/08/10 03:00:12;;;;;;;8.10;7.10;;;;;;;10.15;91.78;99183.00;221260;1306;22565;-78
2023/08/10 03:05:14;;;;;;;14.80;8.40;;;;;;;10.14;92.00;99188.74;221273;1307;22581;-78
2023/08/10 03:10:16;;;;;;;34.70;8.90;;;;;;;10.14;92.14;99190.66;221451;1298;22623;-77
2023/08/10 03:15:19;;;;;;;49.50;8.70;;;;;;;10.11;92.11;99190.60;221451;1304;22594;-78
2023/08/10 03:20:21;;;;;;;28.50;7.30;;;;;;;10.07;91.58;99192.58;221255;1297;22585;-78
2023/08/10 03:25:23;;;;;;;17.60;7.40;;;;;;;10.02;91.76;99196.95;221411;1304;22575;-78
2023/08/10 03:30:25;;;;;;;23.60;8.10;;;;;;;10.00;91.63;99200.84;221219;1304;22571;-77
2023/08/10 03:35:27;;;;;;;36.30;8.90;;;;;;;10.00;91.92;99202.46;221391;1304;25440;-79
2023/08/10 03:40:30;;;;;;;23.60;9.60;;;;;;;10.01;92.12;99203.61;221237;1304;22608;-78
2023/08/10 03:45:32;;;;;;;14.40;9.50;;;;;;;10.04;92.01;99212.41;221376;1300;22591;-77
2023/08/10 03:50:35;;;;;;;17.00;10.40;;;;;;;10.07;92.10;99218.20;221423;1304;22555;-78
2023/08/10 03:55:37;;;;;;;17.10;9.40;;;;;;;10.08;91.94;99218.91;221427;1299;22587;-78
2023/08/10 04:00:44;;;;;;;18.60;10.30;;;;;;;10.12;92.12;99223.27;221390;1300;22597;-78
2023/08/10 04:05:47;;;;;;;15.50;10.50;;;;;;;10.18;92.42;99224.84;221240;1307;22569;-78
2023/08/10 04:10:49;;;;;;;16.90;10.90;;;;;;;10.28;92.39;99222.71;221418;1304;22560;-78
2023/08/10 04:15:53;;;;;;;16.70;10.80;;;;;;;10.38;92.61;99227.22;221435;1305;22561;-78
2023/08/10 04:20:55;;;;;;;15.00;10.60;;;;;;;10.46;92.24;99227.52;221420;1304;25262;-78
2023/08/10 04:25:57;;;;;;;20.50;12.40;;;;;;;10.56;92.52;99220.51;221409;1303;22613;-78
2023/08/10 04:30:59;;;;;;;20.70;12.10;;;;;;;10.68;92.42;99215.02;221462;1299;22629;-77
2023/08/10 04:36:02;;;;;;;19.10;13.50;;;;;;;10.86;92.61;99218.28;221417;1304;22580;-78
2023/08/10 04:41:04;;;;;;;18.00;14.90;;;;;;;11.10;92.64;99220.00;221217;1306;22599;-78
2023/08/10 04:46:06;;;;;;;20.10;14.10;;;;;;;11.36;92.75;99225.35;221275;1305;22560;-79
2023/08/10 04:51:08;;;;;;;17.50;14.80;;;;;;;11.56;92.39;99226.81;221394;1303;22565;-77
2023/08/10 04:56:10;;;;;;;16.50;14.80;;;;;;;11.73;92.19;99231.05;221453;1301;22569;-78
2023/08/10 05:01:14;;;;;;;17.20;15.10;;;;;;;11.80;91.92;99240.95;221426;1307;22573;-78
2023/08/10 05:06:17;;;;;;;16.80;14.30;;;;;;;11.87;91.58;99251.06;221254;1306;22611;-77
2023/08/10 05:11:19;;;;;;;16.70;13.80;;;;;;;11.96;91.73;99260.68;221235;1304;22577;-79
2023/08/10 05:16:21;;;;;;;14.60;12.30;;;;;;;12.07;91.79;99266.91;221455;1305;22576;-79
2023/08/10 05:21:23;;;;;;;12.70;10.80;;;;;;;12.19;91.56;99274.88;221446;1303;22690;-78
2023/08/10 05:26:27;;;;;;;11.20;10.10;;;;;;;12.20;91.16;99279.98;221411;1305;22571;-79
2023/08/10 05:31:29;;;;;;;11.70;10.60;;;;;;;12.19;91.24;99293.70;221399;1304;22706;-79
2023/08/10 05:36:31;;;;;;;10.10;9.10;;;;;;;12.26;91.72;99299.30;221385;1304;24332;-79
2023/08/10 05:41:33;;;;;;;11.10;9.00;;;;;;;12.38;91.79;99299.75;221397;1304;22572;-78
2023/08/10 05:46:35;;;;;;;11.40;8.90;;;;;;;12.51;91.95;99302.92;221060;1298;22715;-77
2023/08/10 05:51:37;;;;;;;12.10;10.40;;;;;;;12.63;91.54;99309.83;221170;1298;22566;-78
2023/08/10 05:56:40;;;;;;;9.10;7.80;;;;;;;12.75;91.06;99314.36;221182;1283;22595;-77
2023/08/10 06:01:43;;;;;;;9.00;8.00;;;;;;;12.84;90.92;99312.20;221022;1298;22601;-76
2023/08/10 06:06:46;;;;;;;9.30;7.80;;;;;;;12.91;90.86;99310.92;221042;1298;22573;-77
2023/08/10 06:11:48;;;;;;;9.80;8.20;;;;;;;13.05;91.05;99309.82;220812;1289;22579;-80
2023/08/10 06:16:50;;;;;;;8.60;7.60;;;;;;;13.18;91.10;99315.10;220871;1284;24248;-76
2023/08/10 06:21:52;;;;;;;7.40;6.40;;;;;;;13.37;91.07;99318.40;220702;1305;22727;-77
2023/08/10 06:26:54;;;;;;;7.10;6.40;;;;;;;13.56;91.02;99317.40;220954;1289;22620;-78
2023/08/10 06:31:56;;;;;;;7.30;6.60;;;;;;;13.78;90.96;99317.70;221103;1306;22567;-77
2023/08/10 06:36:58;;;;;;;6.60;6.00;;;;;;;13.98;90.63;99323.30;221032;1298;22556;-77
2023/08/10 06:42:00;;;;;;;7.00;6.10;;;;;;;14.16;90.56;99326.34;220894;1298;22616;-77
2023/08/10 06:47:03;;;;;;;7.50;6.70;;;;;;;14.33;90.24;99323.58;220731;1307;22587;-77
2023/08/10 06:52:06;;;;;;;6.80;6.20;;;;;;;14.48;89.82;99322.92;220901;1305;22598;-76
2023/08/10 06:57:08;;;;;;;7.70;6.00;;;;;;;14.61;89.65;99326.64;220853;1301;22587;-76
2023/08/10 07:02:10;;;;;;;6.40;5.80;;;;;;;14.77;89.41;99331.28;221063;1305;25345;-79
2023/08/10 07:07:16;;;;;;;6.00;5.50;;;;;;;14.99;89.52;99340.48;221103;1303;22610;-77
2023/08/10 07:12:18;;;;;;;6.10;5.50;;;;;;;15.22;89.03;99335.59;221097;1305;23048;-78
2023/08/10 07:17:20;;;;;;;5.50;5.00;;;;;;;15.37;88.49;99336.45;221207;1304;22617;-78
2023/08/10 07:22:22;;;;;;;6.40;5.70;;;;;;;15.56;88.36;99339.79;221390;1301;22573;-78
2023/08/10 07:27:24;;;;;;;5.90;5.30;;;;;;;15.71;88.01;99346.06;221308;1305;22572;-79
2023/08/10 07:32:31;;;;;;;5.10;4.70;;;;;;;15.87;87.95;99341.77;221398;1302;22566;-80
2023/08/10 07:37:34;;;;;;;5.70;5.20;;;;;;;16.06;87.74;99347.09;221300;1304;22586;-79
2023/08/10 07:42:36;;;;;;;6.10;4.50;;;;;;;16.36;87.66;99347.98;221170;1294;25309;-78
2023/08/10 07:47:38;;;;;;;5.10;4.60;;;;;;;16.60;86.87;99345.46;221215;1298;22629;-78
2023/08/10 07:52:40;;;;;;;4.50;4.00;;;;;;;16.68;86.14;99348.56;221263;1305;22580;-78
2023/08/10 07:57:42;;;;;;;9.90;4.20;;;;;;;16.82;86.45;99350.41;221375;1305;23193;-74
2023/08/10 08:02:44;;;;;;;11.20;4.00;;;;;;;17.11;86.47;99348.55;221345;1299;26034;-75
2023/08/10 08:07:46;;;;;;;4.50;4.00;;;;;;;17.38;85.87;99348.51;221242;1302;22590;-73
2023/08/10 08:12:48;;;;;;;4.10;3.80;;;;;;;17.65;85.03;99349.57;221332;1292;22579;-73
2023/08/10 08:18:28;;;;;;;2.40;2.30;;;;;;;17.88;84.15;99345.33;221391;1298;22563;-73
2023/08/10 08:23:30;;;;;;;2.80;2.50;;;;;;;18.25;82.82;99349.58;221331;1295;22594;-75
2023/08/10 08:28:32;;;;;;;2.90;2.60;;;;;;;18.48;81.26;99351.52;221259;1303;22609;-75
2023/08/10 08:33:35;;;;;;;2.80;2.60;;;;;;;18.68;80.64;99346.32;221170;1295;22680;-76
2023/08/10 08:38:38;;;;;;;2.00;1.90;;;;;;;18.85;80.04;99344.44;220967;1304;22565;-77
2023/08/10 08:43:43;;;;;;;2.40;2.20;;;;;;;19.17;80.37;99345.64;220737;1307;22604;-74
2023/08/10 08:48:45;;;;;;;4.20;2.60;;;;;;;19.46;79.71;99344.70;221221;1298;22682;-74
2023/08/10 08:53:49;;;;;;;2.40;2.20;;;;;;;19.61;78.49;99344.59;221148;1289;22648;-74
2023/08/10 08:58:51;;;;;;;2.40;2.10;;;;;;;19.62;77.35;99333.63;221230;1305;22568;-73
2023/08/10 09:03:53;;;;;;;2.90;2.10;;;;;;;19.80;77.38;99332.11;221221;1301;24329;-73
2023/08/10 09:08:56;;;;;;;2.00;1.80;;;;;;;20.10;75.50;99330.67;221300;1305;22580;-73
2023/08/10 09:14:08;;;;;;;2.80;1.70;;;;;;;20.11;74.42;99333.16;221327;1299;24566;-75
2023/08/10 09:19:14;;;;;;;2.80;1.90;;;;;;;20.18;73.97;99337.53;221017;1301;22599;-73
2023/08/10 09:24:18;;;;;;;3.50;1.80;;;;;;;20.65;74.50;99333.90;221028;1298;22615;-74
2023/08/10 09:29:29;;;;;;;4.40;1.60;;;;;;;21.04;72.77;99331.49;221018;1291;25259;-73
2023/08/10 09:34:31;;;;;;;4.50;1.90;;;;;;;21.19;71.52;99329.92;221267;1304;24972;-73
2023/08/10 09:39:33;;;;;;;2.10;1.80;;;;;;;21.18;70.93;99330.93;220680;1301;22650;-75
2023/08/10 09:44:44;;;;;;;2.30;2.10;;;;;;;21.16;69.75;99335.64;221020;1306;22618;-75
2023/08/10 09:49:55;;;;;;;3.90;2.10;;;;;;;21.05;69.49;99325.95;221090;1300;22569;-75
2023/08/10 09:54:58;;;;;;;2.40;2.20;;;;;;;21.02;69.61;99329.59;221190;1305;22577;-75
2023/08/10 10:00:00;;;;;;;1.70;1.60;;;;;;;21.17;68.80;99329.42;220943;1304;22629;-75
2023/08/10 10:05:07;;;;;;;4.20;2.50;;;;;;;21.17;68.21;99328.18;221029;1287;22607;-74
2023/08/10 10:10:15;;;;;;;2.50;2.20;;;;;;;21.20;68.37;99327.60;221243;1305;23126;-74
2023/08/10 10:15:20;;;;;;;2.70;1.90;;;;;;;21.21;68.12;99324.17;221335;1305;22616;-75
2023/08/10 10:20:22;;;;;;;2.80;2.20;;;;;;;21.38;68.19;99327.59;221306;1299;22572;-74
2023/08/10 10:25:24;;;;;;;2.20;2.00;;;;;;;21.40;67.53;99323.80;221377;1303;22569;-74
2023/08/10 10:30:27;;;;;;;3.20;2.00;;;;;;;21.44;66.88;99315.70;221329;1299;22599;-74
2023/08/10 10:35:31;;;;;;;3.40;1.70;;;;;;;21.39;65.76;99309.42;221478;1299;25426;-76
2023/08/10 10:40:34;;;;;;;2.80;1.90;;;;;;;21.44;65.63;99312.52;221244;1289;22923;-75
2023/08/10 10:45:43;;;;;;;3.10;2.00;;;;;;;21.38;65.17;99309.58;221106;1307;22591;-76
2023/08/10 10:50:45;;;;;;;3.10;1.80;;;;;;;21.33;65.05;99309.28;221168;1304;132381;-74
2023/08/10 10:55:49;;;;;;;3.30;1.90;;;;;;;21.36;64.44;99312.66;221334;1305;22572;-76
2023/08/10 11:00:51;;;;;;;3.60;1.70;;;;;;;21.31;64.03;99311.89;221145;1299;24811;-76
2023/08/10 11:05:53;;;;;;;2.10;1.60;;;;;;;21.34;63.54;99312.16;221235;1298;22583;-77
2023/08/10 11:10:57;;;;;;;2.10;1.80;;;;;;;21.36;63.04;99303.16;221372;1305;22577;-75
2023/08/10 11:15:59;;;;;;;2.00;1.70;;;;;;;21.33;61.91;99302.67;221174;1299;22579;-77
2023/08/10 11:21:06;;;;;;;2.70;1.90;;;;;;;21.54;62.05;99304.23;220935;1295;22567;-74
2023/08/10 11:26:08;;;;;;;3.20;1.90;;;;;;;21.93;60.47;99299.77;221010;1295;22582;-75
2023/08/10 11:31:13;;;;;;;3.40;2.10;;;;;;;22.34;61.38;99297.89;220884;1288;22568;-76
2023/08/10 11:36:15;;;;;;;3.10;1.80;;;;;;;22.94;60.79;99298.27;221056;1282;22871;-76
2023/08/10 11:41:17;;;;;;;6.50;2.30;;;;;;;23.27;60.12;99298.45;221000;1292;22589;-74
2023/08/10 11:46:20;;;;;;;2.50;2.10;;;;;;;23.44;59.62;99305.21;221230;1303;22591;-74
2023/08/10 11:51:22;;;;;;;2.80;1.70;;;;;;;23.36;58.53;99304.24;221049;1305;22667;-74
2023/08/10 11:56:25;;;;;;;1.80;1.60;;;;;;;23.07;57.88;99304.12;220910;1290;25548;-76
2023/08/10 12:01:27;;;;;;;3.80;1.70;;;;;;;22.80;58.00;99301.86;221133;1305;22640;-74
2023/08/10 12:06:39;;;;;;;2.40;1.80;;;;;;;22.51;58.23;99289.95;221515;1299;22576;-74
2023/08/10 12:11:47;;;;;;;3.10;2.10;;;;;;;22.24;58.36;99288.52;221070;1288;22757;-74
2023/08/10 12:16:50;;;;;;;3.90;1.80;;;;;;;21.93;58.53;99282.08;220905;1305;22567;-77
2023/08/10 12:21:53;;;;;;;1.80;1.70;;;;;;;21.92;58.03;99281.78;221120;1298;22673;-74
2023/08/10 12:26:55;;;;;;;3.10;1.70;;;;;;;22.07;57.96;99280.98;220950;1304;22572;-75
2023/08/10 12:31:57;;;;;;;2.50;1.60;;;;;;;21.91;56.57;99279.04;221207;1305;22685;-75
2023/08/10 12:36:59;;;;;;;2.30;1.90;;;;;;;21.66;56.55;99279.02;220700;1307;22565;-75
2023/08/10 12:42:02;;;;;;;2.60;1.90;;;;;;;21.58;57.13;99271.86;221040;1301;22579;-75
2023/08/10 12:47:05;;;;;;;2.50;1.80;;;;;;;21.71;56.27;99271.00;221132;1307;22607;-74
2023/08/10 12:52:07;;;;;;;2.40;1.70;;;;;;;21.85;56.50;99268.52;221044;1298;22595;-75
2023/08/10 12:57:09;;;;;;;2.50;1.90;;;;;;;22.16;56.61;99268.88;221183;1301;22566;-73
2023/08/10 13:02:11;;;;;;;2.20;1.70;;;;;;;22.40;56.59;99262.95;221451;1299;22685;-74
2023/08/10 13:07:31;;;;;;;3.60;1.80;;;;;;;22.70;56.38;99261.65;221181;1298;25316;-75
2023/08/10 13:12:34;;;;;;;2.20;1.80;;;;;;;22.84;55.42;99258.14;221340;1301;22688;-74
2023/08/10 13:17:36;;;;;;;1.70;1.60;;;;;;;22.89;55.13;99252.25;221200;1305;22766;-73
2023/08/10 13:22:38;;;;;;;2.80;1.90;;;;;;;22.93;54.16;99246.14;221275;1305;23159;-74
2023/08/10 13:27:40;;;;;;;2.90;1.90;;;;;;;22.94;53.66;99241.63;221218;1299;22575;-74
2023/08/10 13:32:42;;;;;;;2.70;1.90;;;;;;;23.02;53.55;99239.31;221179;1291;22608;-74
2023/08/10 13:37:44;;;;;;;2.40;2.00;;;;;;;23.19;54.02;99236.92;221025;1283;22620;-74
2023/08/10 13:42:46;;;;;;;2.20;2.00;;;;;;;23.42;53.42;99236.20;220937;1301;22619;-73
2023/08/10 13:47:48;;;;;;;3.20;1.90;;;;;;;23.62;53.84;99229.02;220911;1289;22575;-74
2023/08/10 13:52:50;;;;;;;3.20;1.90;;;;;;;23.90;53.33;99231.47;221168;1301;22580;-74
2023/08/10 13:57:52;;;;;;;5.10;2.10;;;;;;;24.20;53.63;99227.59;221144;1298;22612;-73
2023/08/10 14:02:54;;;;;;;3.10;2.80;;;;;;;24.53;52.86;99228.66;220964;1285;22879;-74
2023/08/10 14:07:56;;;;;;;2.80;2.30;;;;;;;24.52;52.24;99229.08;220828;1283;22572;-75
2023/08/10 14:12:58;;;;;;;3.00;2.70;;;;;;;24.38;51.48;99232.73;220870;1292;22583;-73
2023/08/10 14:18:00;;;;;;;3.00;2.00;;;;;;;24.19;51.54;99238.50;220667;1304;22613;-73
2023/08/10 14:23:02;;;;;;;3.60;3.30;;;;;;;24.09;51.19;99236.83;221044;1304;22591;-73
2023/08/10 14:28:05;;;;;;;2.50;2.30;;;;;;;24.11;51.65;99232.95;221088;1304;22660;-73
2023/08/10 14:33:08;;;;;;;3.90;2.20;;;;;;;23.89;51.22;99231.47;221041;1306;22587;-73
2023/08/10 14:38:10;;;;;;;2.60;2.00;;;;;;;23.87;51.32;99226.77;221188;1305;22601;-74
2023/08/10 14:43:12;;;;;;;3.60;2.10;;;;;;;23.83;51.45;99229.28;221230;1304;25672;-75
2023/08/10 14:48:14;;;;;;;2.40;2.10;;;;;;;23.82;51.69;99232.20;221117;1305;22595;-74
2023/08/10 14:53:16;;;;;;;2.40;2.20;;;;;;;23.71;51.87;99228.73;221188;1283;22564;-73
2023/08/10 14:58:18;;;;;;;3.10;2.00;;;;;;;23.62;51.72;99229.70;221202;1304;22777;-72
2023/08/10 15:03:21;;;;;;;2.80;2.10;;;;;;;23.61;51.60;99229.27;221126;1304;22569;-74
2023/08/10 15:08:23;;;;;;;4.40;2.40;;;;;;;23.58;51.56;99229.92;221204;1301;25490;-73
2023/08/10 15:13:28;;;;;;;2.80;2.10;;;;;;;23.63;51.64;99228.59;221094;1306;22599;-74
2023/08/10 15:18:30;;;;;;;2.10;1.90;;;;;;;23.77;51.80;99222.98;221070;1306;22576;-73
2023/08/10 15:23:32;;;;;;;3.50;2.30;;;;;;;23.94;51.62;99217.77;221083;1302;22585;-73
2023/08/10 15:28:43;;;;;;;3.50;2.40;;;;;;;24.07;50.97;99214.04;221333;1300;22694;-73
2023/08/10 15:33:45;;;;;;;2.60;2.10;;;;;;;23.97;50.70;99207.21;221211;1304;22919;-72
2023/08/10 15:38:48;;;;;;;2.80;1.80;;;;;;;23.89;50.46;99206.79;221250;1304;22572;-72
2023/08/10 15:43:49;;;;;;;2.70;2.20;;;;;;;23.83;51.06;99207.38;221346;1304;22580;-72
2023/08/10 15:48:52;;;;;;;3.50;2.50;;;;;;;23.80;51.07;99213.77;221365;1304;22568;-72
2023/08/10 15:53:54;;;;;;;3.30;2.80;;;;;;;23.70;50.71;99220.91;221334;1304;22576;-72
2023/08/10 15:58:56;;;;;;;3.00;2.70;;;;;;;23.60;51.27;99228.63;221026;1307;24264;-72
2023/08/10 16:03:59;;;;;;;3.00;2.60;;;;;;;23.47;50.92;99231.66;221320;1304;22564;-73
2023/08/10 16:09:02;;;;;;;3.10;2.50;;;;;;;23.36;51.27;99234.92;221245;1304;22601;-72
2023/08/10 16:14:04;;;;;;;2.80;2.20;;;;;;;23.45;51.66;99237.73;221215;1301;22576;-73
2023/08/10 16:19:06;;;;;;;2.30;2.10;;;;;;;23.44;51.01;99237.09;221339;1304;26041;-73
2023/08/10 16:24:08;;;;;;;3.10;2.60;;;;;;;23.28;50.75;99236.13;221367;1305;22676;-73
2023/08/10 16:29:10;;;;;;;2.90;2.40;;;;;;;23.10;50.87;99239.11;221377;1307;22572;-74
2023/08/10 16:34:12;;;;;;;3.10;2.20;;;;;;;22.91;51.26;99245.05;221194;1301;22557;-73
2023/08/10 16:39:14;;;;;;;2.10;2.00;;;;;;;22.79;51.43;99246.83;221270;1307;22579;-72
2023/08/10 16:44:16;;;;;;;3.20;1.90;;;;;;;22.64;51.45;99249.90;221365;1304;22605;-74
2023/08/10 16:49:18;;;;;;;2.20;2.00;;;;;;;22.46;51.51;99248.75;221338;1307;25385;-72
2023/08/10 16:54:33;;;;;;;4.60;2.40;;;;;;;22.25;51.50;99248.90;221204;1300;22609;-73
2023/08/10 16:59:35;;;;;;;3.70;2.20;;;;;;;22.02;51.96;99252.86;221180;1304;22633;-73
2023/08/10 17:04:37;;;;;;;4.70;2.30;;;;;;;21.85;52.57;99251.34;221109;1304;22671;-72
2023/08/10 17:09:39;;;;;;;3.40;1.70;;;;;;;21.67;52.53;99257.73;221073;1304;22571;-72
2023/08/10 17:14:41;;;;;;;3.80;2.30;;;;;;;21.46;52.82;99254.64;221212;1304;22569;-74
2023/08/10 17:19:43;;;;;;;4.00;2.30;;;;;;;21.25;53.40;99257.70;221327;1304;22559;-74
2023/08/10 17:24:44;;;;;;;4.20;2.40;;;;;;;21.04;54.04;99258.64;221082;1306;22573;-71
2023/08/10 17:29:51;;;;;;;3.00;2.70;;;;;;;20.85;54.23;99260.67;221078;1304;22602;-72
2023/08/10 17:34:54;;;;;;;3.80;2.40;;;;;;;20.67;54.43;99260.36;221153;1307;22575;-73
2023/08/10 17:39:56;;;;;;;4.80;3.30;;;;;;;20.44;54.65;99265.68;221352;1301;22596;-73
2023/08/10 17:44:58;;;;;;;3.80;2.50;;;;;;;20.24;55.32;99271.23;221359;1304;22578;-73
2023/08/10 17:50:00;;;;;;;3.50;2.60;;;;;;;20.00;55.58;99275.58;221099;1301;22618;-73
2023/08/10 17:55:06;;;;;;;5.50;3.30;;;;;;;19.76;56.14;99280.38;221220;1304;22562;-74
2023/08/10 18:00:16;;;;;;;4.80;3.30;;;;;;;19.53;56.71;99285.05;221246;1304;25330;-73
2023/08/10 18:05:18;;;;;;;7.20;4.30;;;;;;;19.28;57.63;99285.75;221341;1298;23467;-73
2023/08/10 18:10:20;;;;;;;7.40;4.50;;;;;;;19.02;58.79;99294.52;221207;1304;22555;-73
2023/08/10 18:15:23;;;;;;;7.10;6.00;;;;;;;18.72;59.89;99296.17;221111;1307;22622;-73
2023/08/10 18:20:25;;;;;;;4.10;3.40;;;;;;;18.44;60.86;99298.44;221209;1304;22613;-71
2023/08/10 18:25:28;;;;;;;4.30;3.00;;;;;;;18.16;61.89;99307.29;221205;1304;22592;-72
2023/08/10 18:30:30;;;;;;;7.20;5.60;;;;;;;17.88;62.54;99317.27;221169;1304;22584;-73
2023/08/10 18:35:32;;;;;;;9.50;6.30;;;;;;;17.59;63.11;99318.45;221090;1307;22597;-73
2023/08/10 18:40:36;;;;;;;10.30;5.40;;;;;;;17.31;63.69;99323.52;221117;1305;22659;-74
2023/08/10 18:45:38;;;;;;;8.00;5.30;;;;;;;17.08;64.36;99326.84;221401;1303;22604;-74
2023/08/10 18:50:40;;;;;;;8.70;6.40;;;;;;;16.88;65.07;99327.42;221281;1304;22608;-72
2023/08/10 18:55:48;;;;;;;10.80;7.10;;;;;;;16.70;65.20;99332.98;221219;1301;22597;-73
2023/08/10 19:00:54;;;;;;;11.70;7.00;;;;;;;16.53;65.75;99333.67;221348;1300;24687;-73
2023/08/10 19:05:56;;;;;;;9.60;6.60;;;;;;;16.39;66.30;99334.83;221376;1298;22571;-72
2023/08/10 19:10:58;;;;;;;10.70;6.80;;;;;;;16.24;66.80;99338.42;221124;1307;22613;-74
2023/08/10 19:16:01;;;;;;;8.80;7.40;;;;;;;16.10;67.21;99342.33;221097;1307;22607;-73
2023/08/10 19:21:04;;;;;;;10.60;7.50;;;;;;;15.98;67.86;99346.88;221400;1304;22580;-73
2023/08/10 19:26:06;;;;;;;10.30;8.30;;;;;;;15.85;68.64;99350.91;221379;1303;22556;-73
2023/08/10 19:31:08;;;;;;;12.60;8.70;;;;;;;15.72;68.95;99351.34;221374;1304;25033;-74
2023/08/10 19:36:10;;;;;;;12.60;7.80;;;;;;;15.61;69.32;99355.49;221243;1304;22604;-75
2023/08/10 19:41:12;;;;;;;10.50;7.80;;;;;;;15.47;69.76;99359.70;221385;1303;22585;-73
2023/08/10 19:46:14;;;;;;;11.70;7.50;;;;;;;15.35;70.23;99357.02;221328;1304;22572;-72
2023/08/10 19:51:17;;;;;;;10.60;7.20;;;;;;;15.22;70.77;99358.13;221384;1304;23340;-72
2023/08/10 19:56:19;;;;;;;11.70;7.00;;;;;;;15.10;71.27;99365.15;221193;1304;22598;-73
2023/08/10 20:01:22;;;;;;;10.50;6.70;;;;;;;15.00;71.69;99370.09;221436;1304;22572;-73
2023/08/10 20:06:25;;;;;;;9.40;6.70;;;;;;;14.90;72.05;99369.65;221265;1302;22568;-74
2023/08/10 20:11:27;;;;;;;10.60;6.60;;;;;;;14.80;72.44;99367.39;221254;1301;24736;-73
2023/08/10 20:16:29;;;;;;;8.20;7.00;;;;;;;14.70;72.80;99363.26;221105;1307;22587;-73
2023/08/10 20:21:32;;;;;;;13.80;6.80;;;;;;;14.60;73.19;99360.15;221251;1305;22658;-73
2023/08/10 20:26:35;;;;;;;13.40;7.80;;;;;;;14.50;73.60;99364.83;221398;1303;25552;-73
2023/08/10 20:31:37;;;;;;;13.30;7.80;;;;;;;14.39;74.02;99361.36;221389;1306;22572;-73
2023/08/10 20:36:39;;;;;;;16.20;12.60;;;;;;;14.29;74.36;99361.14;221253;1307;22583;-72
2023/08/10 20:41:41;;;;;;;13.70;9.10;;;;;;;14.20;74.89;99358.13;221246;1307;22575;-72
2023/08/10 20:46:46;;;;;;;8.60;6.80;;;;;;;14.11;75.30;99362.37;221375;1304;22702;-72
2023/08/10 20:51:48;;;;;;;11.40;7.40;;;;;;;14.01;75.60;99364.55;221413;1298;22566;-73
2023/08/10 20:56:50;;;;;;;8.60;6.80;;;;;;;13.91;75.87;99361.93;221442;1304;22583;-72
2023/08/10 21:01:52;;;;;;;13.00;7.70;;;;;;;13.83;75.93;99366.36;221296;1301;22578;-73
2023/08/10 21:06:54;;;;;;;11.40;7.50;;;;;;;13.74;76.09;99363.57;221384;1304;23287;-72
2023/08/10 21:11:56;;;;;;;9.40;7.40;;;;;;;13.66;76.53;99363.35;221417;1298;22593;-72
2023/08/10 21:16:58;;;;;;;10.60;8.30;;;;;;;13.59;76.69;99366.60;221144;1307;22590;-73
2023/08/10 21:22:00;;;;;;;11.20;8.60;;;;;;;13.51;77.17;99363.48;221111;1307;22602;-72
2023/08/10 21:27:02;;;;;;;11.70;8.70;;;;;;;13.43;77.49;99359.54;221242;1307;22594;-72
2023/08/10 21:32:04;;;;;;;12.40;9.60;;;;;;;13.36;77.63;99360.54;221256;1304;22580;-73
2023/08/10 21:37:07;;;;;;;13.80;10.80;;;;;;;13.31;78.21;99366.05;221099;1306;22812;-73
2023/08/10 21:42:10;;;;;;;14.10;11.50;;;;;;;13.25;78.50;99359.83;221393;1304;25384;-72
2023/08/10 21:47:12;;;;;;;19.30;11.80;;;;;;;13.20;78.84;99359.98;221231;1297;22574;-73
2023/08/10 21:52:14;;;;;;;15.20;10.30;;;;;;;13.14;79.16;99363.88;221244;1304;22577;-72
2023/08/10 21:57:16;;;;;;;16.40;10.40;;;;;;;13.05;78.94;99360.68;221400;1304;22586;-73
2023/08/10 22:02:18;;;;;;;16.50;11.10;;;;;;;12.94;78.94;99362.48;221207;1304;22582;-73
2023/08/10 22:07:20;;;;;;;16.40;11.30;;;;;;;12.84;79.04;99363.36;221108;1307;22572;-73
2023/08/10 22:12:22;;;;;;;17.00;11.70;;;;;;;12.73;79.23;99368.96;221089;1307;22571;-73
2023/08/10 22:17:24;;;;;;;14.50;9.90;;;;;;;12.61;79.42;99371.14;221429;1303;22593;-73
2023/08/10 22:22:26;;;;;;;17.10;11.80;;;;;;;12.51;79.74;99369.91;221212;1307;22640;-73
2023/08/10 22:27:28;;;;;;;17.80;12.20;;;;;;;12.42;79.92;99369.41;221179;1304;24645;-72
2023/08/10 22:32:30;;;;;;;15.10;11.90;;;;;;;12.35;80.27;99372.48;221101;1307;22579;-73
2023/08/10 22:37:32;;;;;;;16.70;11.60;;;;;;;12.28;80.25;99375.80;221256;1305;22558;-72
2023/08/10 22:42:35;;;;;;;14.60;12.50;;;;;;;12.21;80.38;99378.76;221243;1304;22583;-72
2023/08/10 22:47:38;;;;;;;18.40;12.90;;;;;;;12.16;80.69;99378.20;221384;1304;131249;-73
2023/08/10 22:52:41;;;;;;;17.90;13.00;;;;;;;12.10;80.74;99377.64;221247;1306;22687;-72
2023/08/10 22:57:43;;;;;;;18.70;13.20;;;;;;;12.05;80.92;99376.49;221227;1306;24267;-73
2023/08/10 23:02:45;;;;;;;17.30;13.60;;;;;;;12.01;81.22;99379.38;221129;1303;22575;-71
2023/08/10 23:07:47;;;;;;;19.20;13.60;;;;;;;11.97;81.45;99375.30;221188;1307;22583;-72
2023/08/10 23:12:52;;;;;;;17.80;12.10;;;;;;;11.92;81.39;99372.00;221431;1306;22567;-73
2023/08/10 23:17:54;;;;;;;16.50;12.50;;;;;;;11.87;81.56;99366.23;220985;1304;22597;-72
2023/08/10 23:22:57;;;;;;;16.40;11.80;;;;;;;11.82;81.69;99364.81;221373;1304;25072;-72